Time;durP1;ratioP1;P1;durP2;ratioP2;P2;SDS_P1;SDS_P2;PMS_P1;PMS_P2;Temp;Humidity;BMP_temperature;BMP_pressure;BME280_temperature;BME280_humidity;BME280_pressure;Samples;Min_cycle;Max_cycle;Signal;HPM_P1;HPM_P2
2021/01/24 00:00:36;;;;;;;;;;;23.20;38.00;;;;;;1509295;77;710;-62
2021/01/24 00:02:38;;;;;;;;;;;23.30;38.30;;;;;;1507392;77;708;-62
2021/01/24 00:04:40;;;;;;;;;;;23.30;38.40;;;;;;1539064;75;1935;-63
2021/01/24 00:06:42;;;;;;;;;;;23.20;38.30;;;;;;1544932;75;728;-63
2021/01/24 00:08:44;;;;;;;;;;;23.40;38.40;;;;;;1542251;75;1186;-63
2021/01/24 00:10:46;;;;;;;;;;;23.20;38.50;;;;;;1532449;75;731;-63
2021/01/24 00:12:47;;;;;;;;;;;23.30;38.50;;;;;;1516416;77;726;-63
2021/01/24 00:14:49;;;;;;;;;;;23.40;38.60;;;;;;1532228;76;738;-61
2021/01/24 00:16:51;;;;;;;;;;;23.30;38.50;;;;;;1531290;76;717;-60
2021/01/24 00:18:53;;;;;;;;;;;23.40;38.50;;;;;;1525259;76;1065;-60
2021/01/24 00:20:55;;;;;;;;;;;23.30;38.50;;;;;;1523572;76;725;-61
2021/01/24 00:22:57;;;;;;;;;;;23.30;38.50;;;;;;1525073;76;865;-60
2021/01/24 00:24:59;;;;;;;;;;;23.30;38.60;;;;;;1521272;77;1948;-62
2021/01/24 00:27:00;;;;;;;;;;;23.30;38.50;;;;;;1523284;76;1135;-61
2021/01/24 00:29:02;;;;;;;;;;;23.40;38.50;;;;;;1532574;76;688;-63
2021/01/24 00:31:04;;;;;;;;;;;23.40;38.60;;;;;;1528233;76;821;-62
2021/01/24 00:33:06;;;;;;;;;;;23.30;38.60;;;;;;1540514;76;795;-64
2021/01/24 00:35:09;;;;;;;;;;;23.40;38.60;;;;;;1535369;76;732;-64
2021/01/24 00:37:11;;;;;;;;;;;23.30;38.60;;;;;;1534713;76;1149;-62
2021/01/24 00:39:13;;;;;;;;;;;23.30;38.60;;;;;;1529405;76;1092;-62
2021/01/24 00:41:15;;;;;;;;;;;23.30;38.60;;;;;;1536128;76;793;-62
2021/01/24 00:43:17;;;;;;;;;;;23.30;38.80;;;;;;1545211;76;1948;-62
2021/01/24 00:45:19;;;;;;;;;;;23.30;38.80;;;;;;1540277;76;690;-63
2021/01/24 00:47:21;;;;;;;;;;;23.30;38.90;;;;;;1531383;76;1142;-65
2021/01/24 00:49:23;;;;;;;;;;;23.30;39.00;;;;;;1534138;76;712;-63
2021/01/24 00:51:24;;;;;;;;;;;23.30;38.90;;;;;;1523785;76;723;-63
2021/01/24 00:53:27;;;;;;;;;;;23.30;38.90;;;;;;1526880;76;705;-65
2021/01/24 00:55:29;;;;;;;;;;;23.30;39.00;;;;;;1523110;76;717;-64
2021/01/24 00:57:30;;;;;;;;;;;23.40;38.90;;;;;;1545283;75;1161;-65
2021/01/24 00:59:32;;;;;;;;;;;23.40;39.00;;;;;;1545621;76;756;-62
2021/01/24 01:01:34;;;;;;;;;;;23.40;39.10;;;;;;1531920;76;729;-62
2021/01/24 01:03:36;;;;;;;;;;;23.40;39.10;;;;;;1533198;76;1940;-62
2021/01/24 01:05:39;;;;;;;;;;;23.40;39.20;;;;;;1530128;76;604;-62
2021/01/24 01:07:41;;;;;;;;;;;23.30;39.20;;;;;;1528588;76;1692;-62
2021/01/24 01:09:43;;;;;;;;;;;23.40;39.30;;;;;;1538268;76;633;-63
2021/01/24 01:11:45;;;;;;;;;;;23.40;39.30;;;;;;1544620;76;1091;-63
2021/01/24 01:13:47;;;;;;;;;;;23.40;39.40;;;;;;1542466;76;747;-63
2021/01/24 01:15:49;;;;;;;;;;;23.40;39.30;;;;;;1530813;76;747;-65
2021/01/24 01:17:51;;;;;;;;;;;23.40;39.40;;;;;;1538476;76;1161;-61
2021/01/24 01:19:53;;;;;;;;;;;23.40;39.40;;;;;;1538480;77;683;-62
2021/01/24 01:21:55;;;;;;;;;;;23.40;39.80;;;;;;1538623;76;798;-62
2021/01/24 01:23:56;;;;;;;;;;;23.20;39.70;;;;;;1545805;76;1928;-62
2021/01/24 01:25:58;;;;;;;;;;;23.30;39.70;;;;;;1524118;77;726;-62
2021/01/24 01:28:00;;;;;;;;;;;23.30;39.70;;;;;;1521716;76;1141;-62
2021/01/24 01:30:03;;;;;;;;;;;23.30;39.50;;;;;;1536374;76;743;-63
2021/01/24 01:32:05;;;;;;;;;;;23.40;39.50;;;;;;1532480;76;710;-62
2021/01/24 01:34:07;;;;;;;;;;;23.40;39.40;;;;;;1553234;76;753;-63
2021/01/24 01:36:09;;;;;;;;;;;23.40;39.40;;;;;;1547275;76;803;-62
2021/01/24 01:38:11;;;;;;;;;;;23.40;39.50;;;;;;1534585;76;1163;-62
2021/01/24 01:40:13;;;;;;;;;;;23.40;39.50;;;;;;1526247;76;781;-62
2021/01/24 01:42:15;;;;;;;;;;;23.40;39.50;;;;;;1530140;76;757;-62
2021/01/24 01:44:17;;;;;;;;;;;23.30;39.60;;;;;;1534189;76;1937;-63
2021/01/24 01:46:20;;;;;;;;;;;23.30;39.60;;;;;;1537529;76;721;-62
2021/01/24 01:48:22;;;;;;;;;;;23.40;39.50;;;;;;1536328;75;1148;-62
2021/01/24 01:50:24;;;;;;;;;;;23.30;39.60;;;;;;1534918;76;797;-64
2021/01/24 01:52:26;;;;;;;;;;;23.30;39.50;;;;;;1524057;76;941;-61
2021/01/24 01:54:28;;;;;;;;;;;23.40;39.60;;;;;;1537908;77;751;-64
2021/01/24 01:56:30;;;;;;;;;;;23.40;39.60;;;;;;1525201;76;692;-63
2021/01/24 01:58:31;;;;;;;;;;;23.40;39.50;;;;;;1522793;76;1140;-62
2021/01/24 02:00:33;;;;;;;;;;;23.40;39.50;;;;;;1525735;76;719;-61
2021/01/24 02:02:37;;;;;;;;;;;23.40;39.40;;;;;;1530540;76;817;-62
2021/01/24 02:04:46;;;;;;;;;;;23.40;39.40;;;;;;1534421;76;1968;-61
2021/01/24 02:06:50;;;;;;;;;;;23.40;39.40;;;;;;1528114;76;715;-62
2021/01/24 02:08:56;;;;;;;;;;;23.40;39.40;;;;;;1552157;75;1648;-60
2021/01/24 02:11:03;;;;;;;;;;;23.40;39.40;;;;;;1549542;75;956;-61
2021/01/24 02:13:15;;;;;;;;;;;23.30;39.50;;;;;;1554252;75;1979;-61
2021/01/24 02:15:19;;;;;;;;;;;23.40;39.60;;;;;;1560083;75;723;-62
2021/01/24 02:17:21;;;;;;;;;;;23.40;39.70;;;;;;1519525;77;1079;-61
2021/01/24 02:19:24;;;;;;;;;;;23.40;39.70;;;;;;1522268;77;721;-61
2021/01/24 02:21:29;;;;;;;;;;;23.30;39.70;;;;;;1556336;75;1545;-61
2021/01/24 02:23:31;;;;;;;;;;;23.40;39.80;;;;;;1513386;77;828;-61
2021/01/24 02:25:34;;;;;;;;;;;23.40;39.80;;;;;;1531467;76;1940;-60
2021/01/24 02:27:43;;;;;;;;;;;23.40;39.80;;;;;;1528386;77;1174;-61
2021/01/24 02:29:46;;;;;;;;;;;23.40;39.80;;;;;;1556620;76;830;-59
2021/01/24 02:31:48;;;;;;;;;;;23.40;39.90;;;;;;1544238;75;1974;-61
2021/01/24 02:33:50;;;;;;;;;;;23.40;39.90;;;;;;1551772;75;743;-61
2021/01/24 02:35:53;;;;;;;;;;;23.40;40.00;;;;;;1518669;76;814;-61
2021/01/24 02:37:56;;;;;;;;;;;23.40;39.90;;;;;;1512135;78;1133;-60
2021/01/24 02:39:57;;;;;;;;;;;23.30;39.80;;;;;;1517392;77;721;-60
2021/01/24 02:42:00;;;;;;;;;;;23.40;39.80;;;;;;1518168;77;689;-60
2021/01/24 02:44:02;;;;;;;;;;;23.50;40.00;;;;;;1518845;77;1930;-61
2021/01/24 02:46:03;;;;;;;;;;;23.40;39.80;;;;;;1519191;77;762;-61
2021/01/24 02:48:06;;;;;;;;;;;23.40;39.90;;;;;;1517816;77;1140;-61
2021/01/24 02:50:08;;;;;;;;;;;23.40;40.00;;;;;;1517463;77;670;-61
2021/01/24 02:52:10;;;;;;;;;;;23.40;40.00;;;;;;1544120;75;739;-61
2021/01/24 02:54:12;;;;;;;;;;;23.40;40.00;;;;;;1551684;75;635;-61
2021/01/24 02:56:14;;;;;;;;;;;23.50;40.10;;;;;;1551813;75;675;-61
2021/01/24 02:58:16;;;;;;;;;;;23.40;40.00;;;;;;1548974;75;1207;-60
2021/01/24 03:00:18;;;;;;;;;;;23.40;40.00;;;;;;1506939;78;768;-61
2021/01/24 03:02:20;;;;;;;;;;;23.40;40.10;;;;;;1546452;75;780;-61
2021/01/24 03:04:22;;;;;;;;;;;23.40;40.30;;;;;;1541390;75;1933;-61
2021/01/24 03:06:24;;;;;;;;;;;23.40;40.20;;;;;;1501779;78;753;-61
2021/01/24 03:08:25;;;;;;;;;;;23.40;40.20;;;;;;1547938;75;1127;-61
2021/01/24 03:10:27;;;;;;;;;;;23.40;40.20;;;;;;1546633;76;716;-59
2021/01/24 03:12:30;;;;;;;;;;;23.30;40.10;;;;;;1542100;75;814;-61
2021/01/24 03:14:32;;;;;;;;;;;23.40;40.10;;;;;;1502118;78;696;-60
2021/01/24 03:16:33;;;;;;;;;;;23.40;40.00;;;;;;1543316;75;760;-59
2021/01/24 03:18:36;;;;;;;;;;;23.40;40.00;;;;;;1548441;75;1172;-62
2021/01/24 03:20:39;;;;;;;;;;;23.40;40.00;;;;;;1506826;78;815;-61
2021/01/24 03:22:41;;;;;;;;;;;23.40;40.00;;;;;;1528769;76;790;-61
2021/01/24 03:24:43;;;;;;;;;;;23.40;39.90;;;;;;1506216;76;1941;-61
2021/01/24 03:26:45;;;;;;;;;;;23.40;39.90;;;;;;1496077;78;797;-61
2021/01/24 03:28:47;;;;;;;;;;;23.40;39.90;;;;;;1551102;75;1078;-61
2021/01/24 03:30:52;;;;;;;;;;;23.40;39.90;;;;;;1534521;76;785;-60
2021/01/24 03:32:54;;;;;;;;;;;23.50;40.00;;;;;;1523959;76;717;-60
2021/01/24 03:34:56;;;;;;;;;;;23.40;40.00;;;;;;1531696;76;727;-61
2021/01/24 03:36:58;;;;;;;;;;;23.40;40.00;;;;;;1531785;76;1162;-61
2021/01/24 03:39:00;;;;;;;;;;;23.40;39.90;;;;;;1528313;76;739;-59
2021/01/24 03:41:02;;;;;;;;;;;23.40;40.00;;;;;;1525595;76;689;-59
2021/01/24 03:43:04;;;;;;;;;;;23.50;40.00;;;;;;1524919;76;1081;-60
2021/01/24 03:45:06;;;;;;;;;;;23.40;39.80;;;;;;1525422;76;1947;-61
2021/01/24 03:47:08;;;;;;;;;;;23.40;39.80;;;;;;1530184;76;1133;-58
2021/01/24 03:49:10;;;;;;;;;;;23.40;39.80;;;;;;1520141;77;773;-61
2021/01/24 03:51:12;;;;;;;;;;;23.40;39.80;;;;;;1532788;76;730;-61
2021/01/24 03:53:14;;;;;;;;;;;23.40;39.70;;;;;;1524695;76;747;-61
2021/01/24 03:55:15;;;;;;;;;;;23.40;39.70;;;;;;1536628;76;781;-61
2021/01/24 03:57:17;;;;;;;;;;;23.40;39.70;;;;;;1532436;76;1051;-62
2021/01/24 03:59:19;;;;;;;;;;;23.40;39.70;;;;;;1537317;76;697;-62
2021/01/24 04:01:21;;;;;;;;;;;23.40;39.60;;;;;;1534384;76;759;-62
2021/01/24 04:03:23;;;;;;;;;;;23.40;39.60;;;;;;1531740;76;762;-62
2021/01/24 04:05:25;;;;;;;;;;;23.40;39.60;;;;;;1525163;76;1949;-61
2021/01/24 04:07:27;;;;;;;;;;;23.40;39.50;;;;;;1525633;76;1147;-60
2021/01/24 04:09:29;;;;;;;;;;;23.40;39.50;;;;;;1530039;77;748;-60
2021/01/24 04:11:30;;;;;;;;;;;23.50;39.60;;;;;;1522926;76;721;-62
2021/01/24 04:13:32;;;;;;;;;;;23.50;39.60;;;;;;1534465;76;694;-61
2021/01/24 04:15:34;;;;;;;;;;;23.50;39.50;;;;;;1528410;76;729;-60
2021/01/24 04:17:36;;;;;;;;;;;23.40;39.50;;;;;;1527535;76;1250;-60
2021/01/24 04:19:38;;;;;;;;;;;23.40;39.40;;;;;;1525871;76;727;-62
2021/01/24 04:21:40;;;;;;;;;;;23.40;39.50;;;;;;1534542;76;752;-61
2021/01/24 04:23:42;;;;;;;;;;;23.30;39.60;;;;;;1530293;77;698;-61
2021/01/24 04:25:44;;;;;;;;;;;23.40;39.70;;;;;;1528875;76;1923;-62
2021/01/24 04:27:46;;;;;;;;;;;23.40;39.70;;;;;;1522399;76;1140;-61
2021/01/24 04:29:47;;;;;;;;;;;23.40;39.70;;;;;;1524693;76;841;-61
2021/01/24 04:31:49;;;;;;;;;;;23.30;39.50;;;;;;1536100;76;702;-61
2021/01/24 04:33:51;;;;;;;;;;;23.30;39.60;;;;;;1534006;76;711;-60
2021/01/24 04:35:53;;;;;;;;;;;23.30;39.50;;;;;;1533932;76;705;-62
2021/01/24 04:37:55;;;;;;;;;;;23.40;39.50;;;;;;1533796;76;1161;-62
2021/01/24 04:39:57;;;;;;;;;;;23.40;39.40;;;;;;1536937;76;756;-63
2021/01/24 04:41:59;;;;;;;;;;;23.30;39.40;;;;;;1535998;76;761;-63
2021/01/24 04:44:00;;;;;;;;;;;23.30;39.10;;;;;;1527837;76;747;-63
2021/01/24 04:46:02;;;;;;;;;;;23.40;39.20;;;;;;1534132;76;1942;-63
2021/01/24 04:48:04;;;;;;;;;;;23.30;39.20;;;;;;1527316;76;1177;-62
2021/01/24 04:50:07;;;;;;;;;;;23.40;39.20;;;;;;1533520;77;648;-60
2021/01/24 04:52:09;;;;;;;;;;;23.40;39.20;;;;;;1536687;76;709;-62
2021/01/24 04:54:11;;;;;;;;;;;23.30;39.20;;;;;;1536942;76;720;-61
2021/01/24 04:56:13;;;;;;;;;;;23.40;39.30;;;;;;1528320;76;719;-61
2021/01/24 04:58:15;;;;;;;;;;;23.30;39.40;;;;;;1529062;76;1142;-62
2021/01/24 05:00:17;;;;;;;;;;;23.20;39.40;;;;;;1522462;76;740;-63
2021/01/24 05:02:19;;;;;;;;;;;23.20;39.60;;;;;;1539150;76;822;-63
2021/01/24 05:04:21;;;;;;;;;;;23.30;39.50;;;;;;1531696;76;1005;-63
2021/01/24 05:06:23;;;;;;;;;;;23.40;39.30;;;;;;1526548;76;1945;-63
2021/01/24 05:08:25;;;;;;;;;;;23.40;39.20;;;;;;1525925;77;1126;-63
2021/01/24 05:10:30;;;;;;;;;;;23.40;39.20;;;;;;1533702;77;684;-61
2021/01/24 05:12:32;;;;;;;;;;;23.40;39.20;;;;;;1534456;76;793;-62
2021/01/24 05:14:33;;;;;;;;;;;23.40;39.20;;;;;;1531409;77;742;-62
2021/01/24 05:16:35;;;;;;;;;;;23.40;39.20;;;;;;1526319;76;710;-63
2021/01/24 05:18:37;;;;;;;;;;;23.40;39.00;;;;;;1527853;76;1179;-62
2021/01/24 05:20:39;;;;;;;;;;;23.50;39.00;;;;;;1534329;76;769;-62
2021/01/24 05:22:41;;;;;;;;;;;23.40;38.90;;;;;;1515334;77;698;-62
2021/01/24 05:24:43;;;;;;;;;;;23.40;38.90;;;;;;1526790;76;600;-62
2021/01/24 05:26:45;;;;;;;;;;;23.40;38.90;;;;;;1537508;76;1944;-62
2021/01/24 05:28:47;;;;;;;;;;;23.40;39.00;;;;;;1537262;76;1083;-61
2021/01/24 05:30:49;;;;;;;;;;;23.50;39.00;;;;;;1525808;76;811;-63
2021/01/24 05:32:52;;;;;;;;;;;23.50;39.00;;;;;;1542881;76;740;-63
2021/01/24 05:34:54;;;;;;;;;;;23.50;39.00;;;;;;1537992;76;756;-63
2021/01/24 05:36:56;;;;;;;;;;;23.50;39.00;;;;;;1546245;76;720;-60
2021/01/24 05:39:00;;;;;;;;;;;23.40;38.90;;;;;;1539523;76;803;-62
2021/01/24 05:41:03;;;;;;;;;;;23.40;39.00;;;;;;1556622;75;698;-62
2021/01/24 05:43:05;;;;;;;;;;;23.50;39.00;;;;;;1528840;76;793;-62
2021/01/24 05:45:11;;;;;;;;;;;23.50;39.00;;;;;;1512654;77;1945;-61
2021/01/24 05:47:13;;;;;;;;;;;23.40;38.90;;;;;;1554817;75;1118;-63
2021/01/24 05:49:16;;;;;;;;;;;23.50;38.90;;;;;;1555772;75;760;-63
2021/01/24 05:51:18;;;;;;;;;;;23.50;38.90;;;;;;1555727;75;1722;-63
2021/01/24 05:53:20;;;;;;;;;;;23.50;38.80;;;;;;1528799;76;742;-63
2021/01/24 05:55:35;;;;;;;;;;;23.60;38.70;;;;;;1533136;76;743;-63
2021/01/24 05:57:37;;;;;;;;;;;23.60;38.70;;;;;;1535406;76;1148;-63
2021/01/24 05:59:52;;;;;;;;;;;23.50;38.60;;;;;;1558568;75;723;-63
2021/01/24 06:01:54;;;;;;;;;;;23.60;38.60;;;;;;1551783;75;729;-63
2021/01/24 06:03:59;;;;;;;;;;;23.60;38.50;;;;;;1556367;75;772;-63
2021/01/24 06:06:01;;;;;;;;;;;23.50;38.40;;;;;;1553296;75;1943;-61
2021/01/24 06:08:03;;;;;;;;;;;23.60;38.40;;;;;;1555297;75;1158;-63
2021/01/24 06:10:06;;;;;;;;;;;23.60;38.40;;;;;;1567442;75;692;-61
2021/01/24 06:12:08;;;;;;;;;;;23.50;38.30;;;;;;1528157;77;760;-62
2021/01/24 06:14:10;;;;;;;;;;;23.60;38.30;;;;;;1566948;75;703;-63
2021/01/24 06:16:13;;;;;;;;;;;23.60;38.20;;;;;;1547201;75;696;-62
2021/01/24 06:18:15;;;;;;;;;;;23.50;38.50;;;;;;1547979;74;1220;-63
2021/01/24 06:20:17;;;;;;;;;;;23.50;38.50;;;;;;1559814;75;781;-61
2021/01/24 06:22:19;;;;;;;;;;;23.50;38.70;;;;;;1545802;75;729;-63
2021/01/24 06:24:37;;;;;;;;;;;23.50;38.60;;;;;;1546388;75;734;-63
2021/01/24 06:26:40;;;;;;;;;;;23.40;38.50;;;;;;1549395;75;1964;-64
2021/01/24 06:28:45;;;;;;;;;;;23.40;38.60;;;;;;1508781;78;1110;-62
2021/01/24 06:30:47;;;;;;;;;;;23.40;38.60;;;;;;1551973;75;815;-63
2021/01/24 06:32:49;;;;;;;;;;;23.40;38.70;;;;;;1542752;75;710;-63
2021/01/24 06:34:51;;;;;;;;;;;23.40;38.80;;;;;;1508401;77;696;-62
2021/01/24 06:37:04;;;;;;;;;;;23.40;38.70;;;;;;1532972;76;798;-62
2021/01/24 06:39:05;;;;;;;;;;;23.40;38.80;;;;;;1543039;76;1746;-62
2021/01/24 06:41:08;;;;;;;;;;;23.50;38.90;;;;;;1508681;78;815;-62
2021/01/24 06:43:10;;;;;;;;;;;23.50;38.70;;;;;;1543449;75;847;-63
2021/01/24 06:45:28;;;;;;;;;;;23.50;38.60;;;;;;1544776;75;730;-62
2021/01/24 06:47:35;;;;;;;;;;;23.50;38.60;;;;;;1501197;77;1146;-62
2021/01/24 06:49:38;;;;;;;;;;;23.50;38.60;;;;;;1540254;75;1722;-62
2021/01/24 06:51:41;;;;;;;;;;;23.50;38.60;;;;;;1552074;75;881;-61
2021/01/24 06:53:44;;;;;;;;;;;23.50;38.60;;;;;;1526491;76;732;-61
2021/01/24 06:55:53;;;;;;;;;;;23.50;38.60;;;;;;1508504;77;1801;-62
2021/01/24 06:57:55;;;;;;;;;;;23.50;38.40;;;;;;1544633;75;1187;-62
2021/01/24 07:00:16;;;;;;;;;;;23.50;38.40;;;;;;1507617;77;725;-63
2021/01/24 07:02:19;;;;;;;;;;;23.50;38.50;;;;;;1546631;75;650;-63
2021/01/24 07:04:29;;;;;;;;;;;23.50;38.40;;;;;;1541215;75;1446;-62
2021/01/24 07:06:31;;;;;;;;;;;23.40;38.40;;;;;;1535762;75;1925;-63
2021/01/24 07:08:33;;;;;;;;;;;23.50;38.70;;;;;;1500216;77;1140;-62
2021/01/24 07:10:40;;;;;;;;;;;23.50;38.80;;;;;;1540799;75;628;-62
2021/01/24 07:12:43;;;;;;;;;;;23.50;38.60;;;;;;1544553;76;688;-61
2021/01/24 07:14:45;;;;;;;;;;;23.50;38.60;;;;;;1541279;75;689;-63
2021/01/24 07:16:47;;;;;;;;;;;23.50;38.60;;;;;;1506712;78;696;-62
2021/01/24 07:18:49;;;;;;;;;;;23.50;38.70;;;;;;1540719;75;1097;-62
2021/01/24 07:20:52;;;;;;;;;;;23.50;38.80;;;;;;1544814;75;791;-62
2021/01/24 07:22:57;;;;;;;;;;;23.50;38.90;;;;;;1546934;75;775;-62
2021/01/24 07:24:57;;;;;;;;;;;23.50;38.90;;;;;;1549166;75;1131;-61
2021/01/24 07:26:59;;;;;;;;;;;23.40;38.80;;;;;;1550967;75;2158;-62
2021/01/24 07:29:01;;;;;;;;;;;23.50;38.90;;;;;;1545175;75;750;-61
2021/01/24 07:31:03;;;;;;;;;;;23.40;38.60;;;;;;1545057;75;723;-62
2021/01/24 07:33:05;;;;;;;;;;;23.50;38.70;;;;;;1547161;75;799;-61
2021/01/24 07:35:07;;;;;;;;;;;23.50;38.70;;;;;;1542961;75;724;-61
2021/01/24 07:37:09;;;;;;;;;;;23.50;38.60;;;;;;1503654;78;1168;-60
2021/01/24 07:39:11;;;;;;;;;;;23.50;38.60;;;;;;1542176;75;736;-58
2021/01/24 07:41:14;;;;;;;;;;;23.50;38.60;;;;;;1532883;76;800;-62
2021/01/24 07:43:16;;;;;;;;;;;23.50;38.60;;;;;;1546216;75;726;-61
2021/01/24 07:45:18;;;;;;;;;;;23.50;38.40;;;;;;1501444;77;775;-60
2021/01/24 07:47:20;;;;;;;;;;;23.50;38.40;;;;;;1546556;75;1952;-60
2021/01/24 07:49:22;;;;;;;;;;;23.70;38.40;;;;;;1538446;75;777;-59
2021/01/24 07:51:24;;;;;;;;;;;23.60;38.10;;;;;;1488448;77;1133;-60
2021/01/24 07:53:25;;;;;;;;;;;23.60;38.20;;;;;;1501626;79;854;-62
2021/01/24 07:55:27;;;;;;;;;;;23.50;38.20;;;;;;1522827;76;712;-60
2021/01/24 07:57:29;;;;;;;;;;;23.60;38.20;;;;;;1517585;76;1159;-61
2021/01/24 07:59:31;;;;;;;;;;;23.60;38.10;;;;;;1527216;76;757;-60
2021/01/24 08:01:33;;;;;;;;;;;23.60;38.10;;;;;;1546837;75;785;-60
2021/01/24 08:03:37;;;;;;;;;;;23.60;38.10;;;;;;1538575;75;694;-60
2021/01/24 08:05:39;;;;;;;;;;;23.60;38.10;;;;;;1501073;78;1605;-61
2021/01/24 08:07:41;;;;;;;;;;;23.60;38.00;;;;;;1538697;75;1956;-61
2021/01/24 08:09:43;;;;;;;;;;;23.60;38.10;;;;;;1548000;75;665;-60
2021/01/24 08:11:44;;;;;;;;;;;23.60;38.10;;;;;;1556343;75;680;-61
2021/01/24 08:13:47;;;;;;;;;;;23.60;37.90;;;;;;1552117;75;746;-61
2021/01/24 08:15:51;;;;;;;;;;;23.60;38.00;;;;;;1552792;75;815;-60
2021/01/24 08:17:53;;;;;;;;;;;23.60;38.10;;;;;;1512342;77;1726;-59
2021/01/24 08:19:55;;;;;;;;;;;23.60;38.10;;;;;;1549141;75;716;-61
2021/01/24 08:21:57;;;;;;;;;;;23.60;38.20;;;;;;1559272;75;697;-61
2021/01/24 08:23:59;;;;;;;;;;;23.60;38.10;;;;;;1512553;77;787;-61
2021/01/24 08:26:01;;;;;;;;;;;23.50;38.10;;;;;;1539214;76;1935;-61
2021/01/24 08:28:03;;;;;;;;;;;23.60;38.10;;;;;;1528485;76;1163;-61
2021/01/24 08:30:05;;;;;;;;;;;23.60;38.10;;;;;;1548395;76;1059;-58
2021/01/24 08:32:07;;;;;;;;;;;23.60;38.20;;;;;;1544245;75;708;-60
2021/01/24 08:34:09;;;;;;;;;;;23.50;38.10;;;;;;1513129;77;723;-59
2021/01/24 08:36:12;;;;;;;;;;;23.50;38.40;;;;;;1563163;75;745;-59
2021/01/24 08:38:14;;;;;;;;;;;23.60;38.40;;;;;;1551208;75;1882;-60
2021/01/24 08:40:16;;;;;;;;;;;23.50;38.30;;;;;;1545339;75;739;-59
2021/01/24 08:42:18;;;;;;;;;;;23.50;38.30;;;;;;1546260;75;729;-59
2021/01/24 08:44:20;;;;;;;;;;;23.50;38.30;;;;;;1527079;76;693;-60
2021/01/24 08:46:25;;;;;;;;;;;23.50;38.40;;;;;;1545097;75;1928;-60
2021/01/24 08:48:27;;;;;;;;;;;23.50;38.30;;;;;;1512247;77;1096;-59
2021/01/24 08:50:32;;;;;;;;;;;23.50;38.40;;;;;;1514219;77;719;-59
2021/01/24 08:52:34;;;;;;;;;;;23.50;38.30;;;;;;1513040;77;715;-61
2021/01/24 08:54:40;;;;;;;;;;;23.50;38.10;;;;;;1530952;76;795;-60
2021/01/24 08:56:42;;;;;;;;;;;23.40;37.30;;;;;;1530304;76;711;-61
2021/01/24 08:58:44;;;;;;;;;;;23.50;37.40;;;;;;1551443;75;1134;-61
2021/01/24 09:00:46;;;;;;;;;;;23.50;37.30;;;;;;1556729;75;712;-61
2021/01/24 09:02:48;;;;;;;;;;;23.50;37.20;;;;;;1535208;76;1035;-61
2021/01/24 09:04:50;;;;;;;;;;;23.50;37.30;;;;;;1515836;77;684;-61
2021/01/24 09:07:10;;;;;;;;;;;23.50;37.10;;;;;;1553389;75;1939;-60
2021/01/24 09:09:12;;;;;;;;;;;23.50;37.20;;;;;;1528795;76;757;-60
2021/01/24 09:11:14;;;;;;;;;;;23.60;37.20;;;;;;1530978;77;739;-60
2021/01/24 09:13:15;;;;;;;;;;;23.60;37.10;;;;;;1511486;77;756;-60
2021/01/24 09:15:19;;;;;;;;;;;23.50;37.30;;;;;;1506105;77;716;-59
2021/01/24 09:17:21;;;;;;;;;;;23.50;37.30;;;;;;1517878;76;1159;-60
2021/01/24 09:19:23;;;;;;;;;;;23.50;37.40;;;;;;1516917;76;803;-60
2021/01/24 09:21:24;;;;;;;;;;;23.60;37.40;;;;;;1546610;75;778;-60
2021/01/24 09:23:26;;;;;;;;;;;23.50;37.30;;;;;;1547730;75;712;-59
2021/01/24 09:25:28;;;;;;;;;;;23.60;37.30;;;;;;1559308;75;678;-59
2021/01/24 09:27:30;;;;;;;;;;;23.70;37.40;;;;;;1549556;74;1951;-60
2021/01/24 09:29:33;;;;;;;;;;;23.60;37.30;;;;;;1546650;75;739;-60
2021/01/24 09:31:34;;;;;;;;;;;23.70;37.30;;;;;;1548284;75;1094;-60
2021/01/24 09:33:36;;;;;;;;;;;23.60;37.30;;;;;;1549504;75;678;-60
2021/01/24 09:35:38;;;;;;;;;;;23.60;37.30;;;;;;1535620;77;787;-61
2021/01/24 09:37:40;;;;;;;;;;;23.60;37.40;;;;;;1536698;75;1071;-60
2021/01/24 09:39:42;;;;;;;;;;;23.70;37.40;;;;;;1546013;75;745;-58
2021/01/24 09:41:44;;;;;;;;;;;23.70;37.40;;;;;;1513679;77;742;-61
2021/01/24 09:43:46;;;;;;;;;;;23.70;37.40;;;;;;1528841;76;803;-61
2021/01/24 09:45:49;;;;;;;;;;;23.60;37.30;;;;;;1544629;75;793;-61
2021/01/24 09:47:51;;;;;;;;;;;23.60;37.30;;;;;;1539646;75;1908;-61
2021/01/24 09:49:53;;;;;;;;;;;23.60;37.30;;;;;;1524353;77;758;-59
2021/01/24 09:51:55;;;;;;;;;;;23.60;37.40;;;;;;1533235;76;772;-60
2021/01/24 09:53:57;;;;;;;;;;;23.50;37.40;;;;;;1528224;76;680;-60
2021/01/24 09:55:59;;;;;;;;;;;23.50;37.50;;;;;;1526591;76;727;-60
2021/01/24 09:58:01;;;;;;;;;;;23.50;37.60;;;;;;1528241;76;1151;-60
2021/01/24 10:00:03;;;;;;;;;;;23.50;37.60;;;;;;1523242;76;723;-59
2021/01/24 10:02:05;;;;;;;;;;;23.60;37.50;;;;;;1524970;76;748;-61
2021/01/24 10:04:07;;;;;;;;;;;23.60;37.50;;;;;;1524616;77;739;-60
2021/01/24 10:06:09;;;;;;;;;;;23.60;37.40;;;;;;1526161;76;717;-60
2021/01/24 10:08:11;;;;;;;;;;;23.60;37.30;;;;;;1532944;76;1894;-59
2021/01/24 10:10:13;;;;;;;;;;;23.60;37.30;;;;;;1529158;76;711;-58
2021/01/24 10:12:15;;;;;;;;;;;23.50;37.50;;;;;;1525093;76;786;-61
2021/01/24 10:14:17;;;;;;;;;;;23.60;37.40;;;;;;1532847;76;768;-60
2021/01/24 10:16:19;;;;;;;;;;;23.60;37.30;;;;;;1535367;76;780;-61
2021/01/24 10:18:21;;;;;;;;;;;23.50;37.20;;;;;;1533283;76;1133;-59
2021/01/24 10:20:23;;;;;;;;;;;23.50;37.50;;;;;;1529017;76;786;-60
2021/01/24 10:22:25;;;;;;;;;;;23.50;37.20;;;;;;1534273;77;815;-61
2021/01/24 10:24:27;;;;;;;;;;;23.60;37.40;;;;;;1535035;77;734;-62
2021/01/24 10:26:29;;;;;;;;;;;23.70;37.30;;;;;;1532876;76;686;-60
2021/01/24 10:28:31;;;;;;;;;;;23.70;37.20;;;;;;1525095;76;1937;-60
2021/01/24 10:30:33;;;;;;;;;;;23.70;36.80;;;;;;1527166;76;729;-59
2021/01/24 10:32:36;;;;;;;;;;;23.60;36.60;;;;;;1527378;76;629;-60
2021/01/24 10:34:38;;;;;;;;;;;23.60;36.70;;;;;;1524880;76;1170;-61
2021/01/24 10:36:40;;;;;;;;;;;23.60;36.60;;;;;;1530658;77;709;-60
2021/01/24 10:38:43;;;;;;;;;;;23.70;36.80;;;;;;1533542;76;1146;-60
2021/01/24 10:40:45;;;;;;;;;;;23.70;36.50;;;;;;1524764;76;723;-62
2021/01/24 10:42:47;;;;;;;;;;;23.70;36.70;;;;;;1525734;76;732;-61
2021/01/24 10:44:49;;;;;;;;;;;23.70;36.70;;;;;;1522605;76;781;-61
2021/01/24 10:46:51;;;;;;;;;;;23.70;36.40;;;;;;1529389;76;1936;-59
2021/01/24 10:48:52;;;;;;;;;;;23.70;36.30;;;;;;1537131;76;1080;-61
2021/01/24 10:50:54;;;;;;;;;;;23.80;36.00;;;;;;1532499;76;718;-61
2021/01/24 10:52:56;;;;;;;;;;;23.80;35.90;;;;;;1540752;76;707;-62
2021/01/24 10:54:58;;;;;;;;;;;23.90;35.70;;;;;;1536581;76;702;-61
2021/01/24 10:57:00;;;;;;;;;;;23.80;35.50;;;;;;1534275;76;1186;-61
2021/01/24 10:59:02;;;;;;;;;;;23.70;35.40;;;;;;1526303;76;713;-59
2021/01/24 11:01:04;;;;;;;;;;;23.80;35.00;;;;;;1540002;76;747;-62
2021/01/24 11:03:06;;;;;;;;;;;23.80;35.30;;;;;;1535371;77;755;-59
2021/01/24 11:05:08;;;;;;;;;;;23.80;35.20;;;;;;1538629;76;728;-60
2021/01/24 11:07:10;;;;;;;;;;;23.80;35.20;;;;;;1535078;76;1912;-60
2021/01/24 11:09:12;;;;;;;;;;;23.90;35.30;;;;;;1526316;76;730;-60
2021/01/24 11:11:14;;;;;;;;;;;23.80;34.90;;;;;;1532775;76;749;-61
2021/01/24 11:13:16;;;;;;;;;;;23.80;35.10;;;;;;1532382;76;707;-62
2021/01/24 11:15:17;;;;;;;;;;;23.80;35.60;;;;;;1534009;76;794;-61
2021/01/24 11:17:19;;;;;;;;;;;23.80;35.60;;;;;;1520072;76;1206;-61
2021/01/24 11:19:21;;;;;;;;;;;23.70;35.70;;;;;;1532622;76;721;-61
2021/01/24 11:21:23;;;;;;;;;;;23.70;35.90;;;;;;1528466;76;762;-61
2021/01/24 11:23:25;;;;;;;;;;;23.70;36.00;;;;;;1529620;76;777;-61
2021/01/24 11:25:27;;;;;;;;;;;23.70;36.20;;;;;;1522217;77;779;-60
2021/01/24 11:27:29;;;;;;;;;;;23.70;36.10;;;;;;1525068;76;1952;-61
2021/01/24 11:29:31;;;;;;;;;;;23.70;35.90;;;;;;1530257;76;815;-61
2021/01/24 11:31:33;;;;;;;;;;;23.70;36.00;;;;;;1533676;76;740;-59
2021/01/24 11:33:35;;;;;;;;;;;23.80;35.90;;;;;;1533041;76;813;-60
2021/01/24 11:35:36;;;;;;;;;;;23.70;35.90;;;;;;1526570;76;822;-59
2021/01/24 11:37:40;;;;;;;;;;;23.80;36.00;;;;;;1530662;76;1177;-62
2021/01/24 11:39:42;;;;;;;;;;;23.90;36.00;;;;;;1521864;76;1308;-63
2021/01/24 11:41:44;;;;;;;;;;;23.80;36.00;;;;;;1527086;76;695;-62
2021/01/24 11:43:45;;;;;;;;;;;23.80;35.90;;;;;;1521277;76;712;-60
2021/01/24 11:45:47;;;;;;;;;;;23.80;35.90;;;;;;1526053;76;733;-61
2021/01/24 11:47:51;;;;;;;;;;;23.80;35.90;;;;;;1525064;77;1961;-62
2021/01/24 11:49:53;;;;;;;;;;;23.70;36.00;;;;;;1533896;76;751;-59
2021/01/24 11:51:55;;;;;;;;;;;23.80;35.80;;;;;;1525178;76;803;-62
2021/01/24 11:53:56;;;;;;;;;;;23.80;36.00;;;;;;1545328;76;679;-63
2021/01/24 11:55:58;;;;;;;;;;;23.80;35.80;;;;;;1533320;77;709;-61
2021/01/24 11:58:00;;;;;;;;;;;23.90;35.80;;;;;;1521458;76;1165;-62
2021/01/24 12:00:03;;;;;;;;;;;23.90;35.70;;;;;;1555815;76;673;-59
2021/01/24 12:02:05;;;;;;;;;;;23.90;35.60;;;;;;1527338;76;795;-59
2021/01/24 12:04:07;;;;;;;;;;;23.90;35.50;;;;;;1533030;76;800;-61
2021/01/24 12:06:09;;;;;;;;;;;23.90;35.30;;;;;;1544811;76;741;-59
2021/01/24 12:08:10;;;;;;;;;;;23.90;35.20;;;;;;1530129;76;1952;-61
2021/01/24 12:10:12;;;;;;;;;;;24.00;35.10;;;;;;1536367;76;661;-60